Big Piney, WY weather

Big Piney-Marbleton Airport (AMOS), Big Piney, WY: 1/31/2015 02:53
Visibility10 statute mileslots of clouds
View 7-Day Forecast
Area Summary
Sky/CloudsSolid Overcast at 6500ft
Weather [last 24 hours]None
Pressure30 in.Hg (1016 hPa)
Dew Point21.9 F (-5.6 C)
Relative Humidity87.9 %
Temperature25 F (-3.9 C)blue thermometer
Wind Chill20.7 F (-6.27 C)
Reading TimeMinimum to Maximum Temperature
6-hr ending 1/30@22:5327 F to 32 F (-2.8 C to 0 C)
6-hr ending 1/30@16:5328.9 F to 35.1 F (-1.7 C to 1.7 C)
6-hr ending 1/30@10:5316 F to 28.9 F (-8.9 C to -1.7 C)
6-hr ending 1/30@04:5317.1 F to 19.9 F (-8.3 C to -6.7 C)
24-hr ending 1/30@23:5316 F to 35.1 F (-8.9 C to 1.7 C)
Wind3.45 MPH (3 KT) green arrow pointing 270 degrees
Wind FromWest (280 Degrees)
Twilight Begins07:03Sunshine Yesterday
Sunrise07:33N/A
Sunset17:35
Twilight Ends18:05
METARKBPI 310953Z AUTO 28003KT 10SM OVC065 M04/M06 A3000 RMK AO2 SLP161 T10391056
Tags: